sensor_id;sensor_type;location;lat;lon;timestamp;P1;durP1;ratioP1;P2;durP2;ratioP2
4359;SDS011;2193;47.980;7.660;2022-11-27T00:01:20;45.65;;;19.25;;
4359;SDS011;2193;47.980;7.660;2022-11-27T00:03:46;46.53;;;19.60;;
4359;SDS011;2193;47.980;7.660;2022-11-27T00:06:12;40.77;;;17.43;;
4359;SDS011;2193;47.980;7.660;2022-11-27T00:08:38;39.80;;;17.80;;
4359;SDS011;2193;47.980;7.660;2022-11-27T00:11:07;38.60;;;16.17;;
4359;SDS011;2193;47.980;7.660;2022-11-27T00:13:32;40.70;;;18.80;;
4359;SDS011;2193;47.980;7.660;2022-11-27T00:15:57;52.13;;;20.50;;
4359;SDS011;2193;47.980;7.660;2022-11-27T00:18:23;57.03;;;17.93;;
4359;SDS011;2193;47.980;7.660;2022-11-27T00:20:48;49.33;;;20.00;;
4359;SDS011;2193;47.980;7.660;2022-11-27T00:23:13;45.50;;;18.60;;
4359;SDS011;2193;47.980;7.660;2022-11-27T00:25:38;41.37;;;17.80;;
4359;SDS011;2193;47.980;7.660;2022-11-27T00:28:03;44.47;;;20.23;;
4359;SDS011;2193;47.980;7.660;2022-11-27T00:30:29;42.80;;;19.30;;
4359;SDS011;2193;47.980;7.660;2022-11-27T00:32:54;49.83;;;20.00;;
4359;SDS011;2193;47.980;7.660;2022-11-27T00:35:19;50.57;;;19.27;;
4359;SDS011;2193;47.980;7.660;2022-11-27T00:37:44;66.23;;;21.53;;
4359;SDS011;2193;47.980;7.660;2022-11-27T00:40:09;56.07;;;20.63;;
4359;SDS011;2193;47.980;7.660;2022-11-27T00:42:35;64.70;;;21.30;;
4359;SDS011;2193;47.980;7.660;2022-11-27T00:45:00;63.20;;;20.10;;
4359;SDS011;2193;47.980;7.660;2022-11-27T00:47:25;48.33;;;20.60;;
4359;SDS011;2193;47.980;7.660;2022-11-27T00:49:50;55.70;;;21.50;;
4359;SDS011;2193;47.980;7.660;2022-11-27T00:52:16;70.20;;;22.80;;
4359;SDS011;2193;47.980;7.660;2022-11-27T00:54:41;87.27;;;23.47;;
4359;SDS011;2193;47.980;7.660;2022-11-27T00:57:06;134.60;;;24.73;;
4359;SDS011;2193;47.980;7.660;2022-11-27T00:59:31;68.20;;;21.90;;
4359;SDS011;2193;47.980;7.660;2022-11-27T01:01:56;95.57;;;23.63;;
4359;SDS011;2193;47.980;7.660;2022-11-27T01:04:22;71.10;;;22.20;;
4359;SDS011;2193;47.980;7.660;2022-11-27T01:06:47;70.63;;;20.20;;
4359;SDS011;2193;47.980;7.660;2022-11-27T01:09:12;73.10;;;21.57;;
4359;SDS011;2193;47.980;7.660;2022-11-27T01:11:38;62.47;;;19.23;;
4359;SDS011;2193;47.980;7.660;2022-11-27T01:14:05;132.30;;;22.97;;
4359;SDS011;2193;47.980;7.660;2022-11-27T01:16:31;81.38;;;20.85;;
4359;SDS011;2193;47.980;7.660;2022-11-27T01:18:57;120.37;;;19.33;;
4359;SDS011;2193;47.980;7.660;2022-11-27T01:21:23;80.35;;;18.80;;
4359;SDS011;2193;47.980;7.660;2022-11-27T01:23:48;145.00;;;22.10;;
4359;SDS011;2193;47.980;7.660;2022-11-27T01:26:14;52.43;;;17.10;;
4359;SDS011;2193;47.980;7.660;2022-11-27T01:28:39;54.20;;;19.03;;
4359;SDS011;2193;47.980;7.660;2022-11-27T01:31:12;55.80;;;18.67;;
4359;SDS011;2193;47.980;7.660;2022-11-27T01:33:37;61.30;;;20.02;;
4359;SDS011;2193;47.980;7.660;2022-11-27T01:36:03;126.80;;;19.90;;
4359;SDS011;2193;47.980;7.660;2022-11-27T01:38:29;69.03;;;17.23;;
4359;SDS011;2193;47.980;7.660;2022-11-27T01:40:56;77.07;;;16.93;;
4359;SDS011;2193;47.980;7.660;2022-11-27T01:46:13;51.13;;;18.33;;
4359;SDS011;2193;47.980;7.660;2022-11-27T01:48:39;56.72;;;18.45;;
4359;SDS011;2193;47.980;7.660;2022-11-27T01:51:05;44.10;;;16.83;;
4359;SDS011;2193;47.980;7.660;2022-11-27T01:53:30;41.17;;;16.10;;
4359;SDS011;2193;47.980;7.660;2022-11-27T01:55:57;46.70;;;16.37;;
4359;SDS011;2193;47.980;7.660;2022-11-27T01:58:23;38.65;;;14.60;;
4359;SDS011;2193;47.980;7.660;2022-11-27T02:00:49;36.65;;;14.98;;
4359;SDS011;2193;47.980;7.660;2022-11-27T02:03:14;37.43;;;13.83;;
4359;SDS011;2193;47.980;7.660;2022-11-27T02:05:40;36.27;;;12.50;;
4359;SDS011;2193;47.980;7.660;2022-11-27T02:08:06;42.30;;;14.80;;
4359;SDS011;2193;47.980;7.660;2022-11-27T02:21:17;34.40;;;13.90;;
4359;SDS011;2193;47.980;7.660;2022-11-27T02:23:40;38.90;;;14.13;;
4359;SDS011;2193;47.980;7.660;2022-11-27T02:26:22;42.30;;;15.40;;
4359;SDS011;2193;47.980;7.660;2022-11-27T02:31:18;38.28;;;14.65;;
4359;SDS011;2193;47.980;7.660;2022-11-27T02:33:46;35.20;;;13.50;;
4359;SDS011;2193;47.980;7.660;2022-11-27T02:36:16;41.53;;;13.18;;
4359;SDS011;2193;47.980;7.660;2022-11-27T02:38:44;37.42;;;14.13;;
4359;SDS011;2193;47.980;7.660;2022-11-27T02:41:15;51.13;;;15.20;;
4359;SDS011;2193;47.980;7.660;2022-11-27T02:43:44;34.72;;;14.52;;
4359;SDS011;2193;47.980;7.660;2022-11-27T02:46:09;77.47;;;16.30;;
4359;SDS011;2193;47.980;7.660;2022-11-27T02:48:37;48.53;;;15.43;;
4359;SDS011;2193;47.980;7.660;2022-11-27T02:51:03;45.03;;;14.93;;
4359;SDS011;2193;47.980;7.660;2022-11-27T02:53:30;57.93;;;15.77;;
4359;SDS011;2193;47.980;7.660;2022-11-27T02:55:56;93.68;;;16.95;;
4359;SDS011;2193;47.980;7.660;2022-11-27T02:58:22;50.47;;;15.52;;
4359;SDS011;2193;47.980;7.660;2022-11-27T03:00:48;50.67;;;15.45;;
4359;SDS011;2193;47.980;7.660;2022-11-27T03:03:15;50.80;;;15.07;;
4359;SDS011;2193;47.980;7.660;2022-11-27T03:05:42;42.50;;;15.38;;
4359;SDS011;2193;47.980;7.660;2022-11-27T03:08:14;45.15;;;13.98;;
4359;SDS011;2193;47.980;7.660;2022-11-27T03:10:47;45.15;;;13.80;;
4359;SDS011;2193;47.980;7.660;2022-11-27T03:13:14;44.35;;;15.85;;
4359;SDS011;2193;47.980;7.660;2022-11-27T03:15:45;44.40;;;13.93;;
4359;SDS011;2193;47.980;7.660;2022-11-27T03:18:17;47.20;;;14.48;;
4359;SDS011;2193;47.980;7.660;2022-11-27T03:20:45;37.45;;;12.68;;
4359;SDS011;2193;47.980;7.660;2022-11-27T03:23:12;46.88;;;15.02;;
4359;SDS011;2193;47.980;7.660;2022-11-27T03:25:37;33.47;;;13.40;;
4359;SDS011;2193;47.980;7.660;2022-11-27T03:28:04;47.73;;;13.93;;
4359;SDS011;2193;47.980;7.660;2022-11-27T03:30:30;37.92;;;12.93;;
4359;SDS011;2193;47.980;7.660;2022-11-27T03:32:55;39.93;;;13.13;;
4359;SDS011;2193;47.980;7.660;2022-11-27T03:35:22;29.47;;;12.07;;
4359;SDS011;2193;47.980;7.660;2022-11-27T03:37:48;33.03;;;12.63;;
4359;SDS011;2193;47.980;7.660;2022-11-27T03:40:13;27.37;;;11.63;;
4359;SDS011;2193;47.980;7.660;2022-11-27T03:42:49;29.40;;;11.50;;
4359;SDS011;2193;47.980;7.660;2022-11-27T03:45:21;41.22;;;11.40;;
4359;SDS011;2193;47.980;7.660;2022-11-27T04:00:16;34.03;;;11.47;;
4359;SDS011;2193;47.980;7.660;2022-11-27T04:02:43;31.20;;;12.03;;
4359;SDS011;2193;47.980;7.660;2022-11-27T04:05:11;30.50;;;12.10;;
4359;SDS011;2193;47.980;7.660;2022-11-27T04:07:36;34.08;;;11.93;;
4359;SDS011;2193;47.980;7.660;2022-11-27T04:10:02;27.77;;;11.33;;
4359;SDS011;2193;47.980;7.660;2022-11-27T04:12:28;35.08;;;11.43;;
4359;SDS011;2193;47.980;7.660;2022-11-27T04:14:53;29.17;;;11.97;;
4359;SDS011;2193;47.980;7.660;2022-11-27T04:17:18;28.27;;;11.60;;
4359;SDS011;2193;47.980;7.660;2022-11-27T04:19:44;30.10;;;11.83;;
4359;SDS011;2193;47.980;7.660;2022-11-27T04:22:09;30.73;;;11.10;;
4359;SDS011;2193;47.980;7.660;2022-11-27T04:24:34;29.33;;;11.90;;
4359;SDS011;2193;47.980;7.660;2022-11-27T04:26:59;28.80;;;11.43;;
4359;SDS011;2193;47.980;7.660;2022-11-27T04:29:25;31.57;;;11.97;;
4359;SDS011;2193;47.980;7.660;2022-11-27T04:31:50;29.90;;;12.53;;
4359;SDS011;2193;47.980;7.660;2022-11-27T04:34:15;30.03;;;12.30;;
4359;SDS011;2193;47.980;7.660;2022-11-27T04:36:41;34.20;;;12.03;;
4359;SDS011;2193;47.980;7.660;2022-11-27T04:39:07;34.20;;;12.02;;
4359;SDS011;2193;47.980;7.660;2022-11-27T04:41:32;38.83;;;12.40;;
4359;SDS011;2193;47.980;7.660;2022-11-27T04:43:57;33.00;;;12.77;;
4359;SDS011;2193;47.980;7.660;2022-11-27T04:46:22;45.90;;;12.40;;
4359;SDS011;2193;47.980;7.660;2022-11-27T04:48:48;37.43;;;12.47;;
4359;SDS011;2193;47.980;7.660;2022-11-27T04:51:13;45.20;;;14.10;;
4359;SDS011;2193;47.980;7.660;2022-11-27T04:53:38;36.23;;;11.63;;
4359;SDS011;2193;47.980;7.660;2022-11-27T04:56:03;36.80;;;10.93;;
4359;SDS011;2193;47.980;7.660;2022-11-27T04:58:29;52.20;;;13.33;;
4359;SDS011;2193;47.980;7.660;2022-11-27T05:00:54;79.10;;;14.10;;
4359;SDS011;2193;47.980;7.660;2022-11-27T05:03:19;101.97;;;14.87;;
4359;SDS011;2193;47.980;7.660;2022-11-27T05:05:44;95.57;;;13.20;;
4359;SDS011;2193;47.980;7.660;2022-11-27T05:08:09;84.40;;;11.80;;
4359;SDS011;2193;47.980;7.660;2022-11-27T05:10:35;55.53;;;10.33;;
4359;SDS011;2193;47.980;7.660;2022-11-27T05:13:00;45.90;;;9.60;;
4359;SDS011;2193;47.980;7.660;2022-11-27T05:15:25;73.83;;;10.47;;
4359;SDS011;2193;47.980;7.660;2022-11-27T05:17:50;30.33;;;8.50;;
4359;SDS011;2193;47.980;7.660;2022-11-27T05:20:15;61.50;;;9.43;;
4359;SDS011;2193;47.980;7.660;2022-11-27T05:22:41;34.33;;;8.50;;
4359;SDS011;2193;47.980;7.660;2022-11-27T05:25:06;42.73;;;10.00;;
4359;SDS011;2193;47.980;7.660;2022-11-27T05:27:31;66.17;;;9.90;;
4359;SDS011;2193;47.980;7.660;2022-11-27T05:29:57;83.20;;;11.13;;
4359;SDS011;2193;47.980;7.660;2022-11-27T05:32:22;70.00;;;10.67;;
4359;SDS011;2193;47.980;7.660;2022-11-27T05:34:47;61.20;;;9.03;;
4359;SDS011;2193;47.980;7.660;2022-11-27T05:37:13;31.55;;;9.30;;
4359;SDS011;2193;47.980;7.660;2022-11-27T05:39:39;74.70;;;11.20;;
4359;SDS011;2193;47.980;7.660;2022-11-27T05:42:04;53.70;;;9.87;;
4359;SDS011;2193;47.980;7.660;2022-11-27T05:44:29;99.63;;;12.60;;
4359;SDS011;2193;47.980;7.660;2022-11-27T05:46:54;47.23;;;11.50;;
4359;SDS011;2193;47.980;7.660;2022-11-27T05:49:21;47.70;;;9.65;;
4359;SDS011;2193;47.980;7.660;2022-11-27T05:51:46;39.13;;;10.03;;
4359;SDS011;2193;47.980;7.660;2022-11-27T05:54:11;79.57;;;10.23;;
4359;SDS011;2193;47.980;7.660;2022-11-27T05:56:36;40.20;;;9.40;;
4359;SDS011;2193;47.980;7.660;2022-11-27T05:59:02;73.27;;;10.60;;
4359;SDS011;2193;47.980;7.660;2022-11-27T06:01:27;72.83;;;12.40;;
4359;SDS011;2193;47.980;7.660;2022-11-27T06:03:52;53.67;;;10.90;;
4359;SDS011;2193;47.980;7.660;2022-11-27T06:06:18;42.77;;;11.87;;
4359;SDS011;2193;47.980;7.660;2022-11-27T06:08:44;53.53;;;12.10;;
4359;SDS011;2193;47.980;7.660;2022-11-27T06:11:10;114.88;;;12.30;;
4359;SDS011;2193;47.980;7.660;2022-11-27T06:13:36;35.88;;;10.48;;
4359;SDS011;2193;47.980;7.660;2022-11-27T06:16:09;124.07;;;16.30;;
4359;SDS011;2193;47.980;7.660;2022-11-27T06:18:34;70.95;;;11.45;;
4359;SDS011;2193;47.980;7.660;2022-11-27T06:21:00;54.03;;;10.97;;
4359;SDS011;2193;47.980;7.660;2022-11-27T06:23:25;103.97;;;12.67;;
4359;SDS011;2193;47.980;7.660;2022-11-27T06:25:50;61.67;;;10.93;;
4359;SDS011;2193;47.980;7.660;2022-11-27T06:28:15;56.37;;;11.57;;
4359;SDS011;2193;47.980;7.660;2022-11-27T06:30:40;115.53;;;12.47;;
4359;SDS011;2193;47.980;7.660;2022-11-27T06:33:06;132.57;;;15.77;;
4359;SDS011;2193;47.980;7.660;2022-11-27T06:35:31;62.80;;;13.90;;
4359;SDS011;2193;47.980;7.660;2022-11-27T06:37:56;66.00;;;11.93;;
4359;SDS011;2193;47.980;7.660;2022-11-27T06:40:21;45.33;;;10.63;;
4359;SDS011;2193;47.980;7.660;2022-11-27T06:42:47;49.37;;;12.67;;
4359;SDS011;2193;47.980;7.660;2022-11-27T06:45:12;55.60;;;11.90;;
4359;SDS011;2193;47.980;7.660;2022-11-27T06:47:38;43.90;;;11.73;;
4359;SDS011;2193;47.980;7.660;2022-11-27T06:50:03;50.03;;;11.03;;
4359;SDS011;2193;47.980;7.660;2022-11-27T06:52:28;46.17;;;11.30;;
4359;SDS011;2193;47.980;7.660;2022-11-27T06:54:54;67.37;;;12.03;;
4359;SDS011;2193;47.980;7.660;2022-11-27T06:57:19;104.03;;;14.10;;
4359;SDS011;2193;47.980;7.660;2022-11-27T06:59:45;59.93;;;14.53;;
4359;SDS011;2193;47.980;7.660;2022-11-27T07:02:12;53.80;;;12.80;;
4359;SDS011;2193;47.980;7.660;2022-11-27T07:04:38;46.75;;;11.63;;
4359;SDS011;2193;47.980;7.660;2022-11-27T07:07:03;53.33;;;12.40;;
4359;SDS011;2193;47.980;7.660;2022-11-27T07:09:28;46.97;;;11.93;;
4359;SDS011;2193;47.980;7.660;2022-11-27T07:11:53;46.80;;;12.97;;
4359;SDS011;2193;47.980;7.660;2022-11-27T07:14:18;41.60;;;12.57;;
4359;SDS011;2193;47.980;7.660;2022-11-27T07:16:44;37.57;;;14.30;;
4359;SDS011;2193;47.980;7.660;2022-11-27T07:19:09;41.73;;;12.30;;
4359;SDS011;2193;47.980;7.660;2022-11-27T07:21:35;48.67;;;13.73;;
4359;SDS011;2193;47.980;7.660;2022-11-27T07:24:00;59.90;;;15.18;;
4359;SDS011;2193;47.980;7.660;2022-11-27T07:26:27;52.63;;;14.03;;
4359;SDS011;2193;47.980;7.660;2022-11-27T07:28:53;47.85;;;15.05;;
4359;SDS011;2193;47.980;7.660;2022-11-27T07:31:20;61.97;;;16.73;;
4359;SDS011;2193;47.980;7.660;2022-11-27T07:33:45;43.92;;;13.60;;
4359;SDS011;2193;47.980;7.660;2022-11-27T07:38:39;78.50;;;25.83;;
4359;SDS011;2193;47.980;7.660;2022-11-27T07:41:04;46.07;;;15.03;;
4359;SDS011;2193;47.980;7.660;2022-11-27T07:43:31;47.07;;;18.00;;
4359;SDS011;2193;47.980;7.660;2022-11-27T07:45:56;40.97;;;16.48;;
4359;SDS011;2193;47.980;7.660;2022-11-27T07:48:22;56.90;;;19.80;;
4359;SDS011;2193;47.980;7.660;2022-11-27T07:50:47;39.23;;;14.10;;
4359;SDS011;2193;47.980;7.660;2022-11-27T07:53:12;44.23;;;16.40;;
4359;SDS011;2193;47.980;7.660;2022-11-27T07:55:38;41.73;;;18.97;;
4359;SDS011;2193;47.980;7.660;2022-11-27T07:58:03;33.45;;;13.90;;
4359;SDS011;2193;47.980;7.660;2022-11-27T08:00:29;26.90;;;12.93;;
4359;SDS011;2193;47.980;7.660;2022-11-27T08:02:54;29.80;;;12.77;;
4359;SDS011;2193;47.980;7.660;2022-11-27T08:05:19;28.10;;;10.80;;
4359;SDS011;2193;47.980;7.660;2022-11-27T08:07:44;26.97;;;11.37;;
4359;SDS011;2193;47.980;7.660;2022-11-27T08:10:09;21.03;;;10.03;;
4359;SDS011;2193;47.980;7.660;2022-11-27T08:12:35;28.77;;;12.70;;
4359;SDS011;2193;47.980;7.660;2022-11-27T08:15:00;24.80;;;11.40;;
4359;SDS011;2193;47.980;7.660;2022-11-27T08:17:27;26.63;;;9.95;;
4359;SDS011;2193;47.980;7.660;2022-11-27T08:19:52;27.63;;;10.80;;
4359;SDS011;2193;47.980;7.660;2022-11-27T08:22:17;27.53;;;11.03;;
4359;SDS011;2193;47.980;7.660;2022-11-27T08:24:43;31.40;;;11.50;;
4359;SDS011;2193;47.980;7.660;2022-11-27T08:27:09;33.30;;;15.10;;
4359;SDS011;2193;47.980;7.660;2022-11-27T08:29:34;28.63;;;12.83;;
4359;SDS011;2193;47.980;7.660;2022-11-27T08:31:59;35.00;;;14.37;;
4359;SDS011;2193;47.980;7.660;2022-11-27T08:34:25;37.63;;;15.97;;
4359;SDS011;2193;47.980;7.660;2022-11-27T08:36:51;32.43;;;13.03;;
4359;SDS011;2193;47.980;7.660;2022-11-27T08:39:16;37.83;;;14.40;;
4359;SDS011;2193;47.980;7.660;2022-11-27T08:41:41;33.57;;;12.47;;
4359;SDS011;2193;47.980;7.660;2022-11-27T08:44:06;36.83;;;18.53;;
4359;SDS011;2193;47.980;7.660;2022-11-27T08:46:31;33.10;;;13.93;;
4359;SDS011;2193;47.980;7.660;2022-11-27T08:48:57;30.57;;;12.70;;
4359;SDS011;2193;47.980;7.660;2022-11-27T08:51:22;36.17;;;14.93;;
4359;SDS011;2193;47.980;7.660;2022-11-27T08:53:48;36.33;;;14.57;;
4359;SDS011;2193;47.980;7.660;2022-11-27T08:56:14;39.63;;;16.10;;
4359;SDS011;2193;47.980;7.660;2022-11-27T08:58:40;41.97;;;16.38;;
4359;SDS011;2193;47.980;7.660;2022-11-27T09:01:06;34.73;;;15.77;;
4359;SDS011;2193;47.980;7.660;2022-11-27T09:03:31;44.63;;;17.27;;
4359;SDS011;2193;47.980;7.660;2022-11-27T09:05:57;40.80;;;17.30;;
4359;SDS011;2193;47.980;7.660;2022-11-27T09:08:22;38.50;;;17.23;;
4359;SDS011;2193;47.980;7.660;2022-11-27T09:10:47;41.77;;;16.17;;
4359;SDS011;2193;47.980;7.660;2022-11-27T09:13:12;35.73;;;15.70;;
4359;SDS011;2193;47.980;7.660;2022-11-27T09:15:38;35.67;;;15.40;;
4359;SDS011;2193;47.980;7.660;2022-11-27T09:18:03;30.83;;;14.77;;
4359;SDS011;2193;47.980;7.660;2022-11-27T09:20:28;34.77;;;14.30;;
4359;SDS011;2193;47.980;7.660;2022-11-27T09:22:53;31.67;;;14.47;;
4359;SDS011;2193;47.980;7.660;2022-11-27T09:25:18;26.33;;;13.97;;
4359;SDS011;2193;47.980;7.660;2022-11-27T09:27:44;27.57;;;14.70;;
4359;SDS011;2193;47.980;7.660;2022-11-27T09:30:09;31.03;;;14.30;;
4359;SDS011;2193;47.980;7.660;2022-11-27T09:32:34;38.10;;;15.60;;
4359;SDS011;2193;47.980;7.660;2022-11-27T09:34:59;29.63;;;14.70;;
4359;SDS011;2193;47.980;7.660;2022-11-27T09:37:25;27.40;;;14.47;;
4359;SDS011;2193;47.980;7.660;2022-11-27T09:39:50;24.70;;;11.87;;
4359;SDS011;2193;47.980;7.660;2022-11-27T09:42:20;22.97;;;12.27;;
4359;SDS011;2193;47.980;7.660;2022-11-27T09:44:54;23.70;;;12.93;;
4359;SDS011;2193;47.980;7.660;2022-11-27T09:49:49;20.03;;;11.50;;
4359;SDS011;2193;47.980;7.660;2022-11-27T09:55:04;25.85;;;12.82;;
4359;SDS011;2193;47.980;7.660;2022-11-27T09:57:35;18.02;;;11.00;;
4359;SDS011;2193;47.980;7.660;2022-11-27T10:00:02;21.58;;;11.40;;
4359;SDS011;2193;47.980;7.660;2022-11-27T10:02:29;25.23;;;13.80;;
4359;SDS011;2193;47.980;7.660;2022-11-27T10:04:55;20.92;;;12.88;;
4359;SDS011;2193;47.980;7.660;2022-11-27T10:07:32;28.45;;;13.07;;
4359;SDS011;2193;47.980;7.660;2022-11-27T10:12:38;26.80;;;14.48;;
4359;SDS011;2193;47.980;7.660;2022-11-27T10:17:40;31.60;;;15.27;;
4359;SDS011;2193;47.980;7.660;2022-11-27T10:25:21;31.00;;;15.20;;
4359;SDS011;2193;47.980;7.660;2022-11-27T10:28:03;24.10;;;12.38;;
4359;SDS011;2193;47.980;7.660;2022-11-27T10:30:31;28.15;;;13.48;;
4359;SDS011;2193;47.980;7.660;2022-11-27T10:32:57;28.13;;;13.40;;
4359;SDS011;2193;47.980;7.660;2022-11-27T10:35:25;27.73;;;13.77;;
4359;SDS011;2193;47.980;7.660;2022-11-27T10:40:23;24.60;;;13.82;;
4359;SDS011;2193;47.980;7.660;2022-11-27T10:45:50;27.38;;;14.10;;
4359;SDS011;2193;47.980;7.660;2022-11-27T10:48:16;27.10;;;13.95;;
4359;SDS011;2193;47.980;7.660;2022-11-27T10:50:42;26.17;;;13.40;;
4359;SDS011;2193;47.980;7.660;2022-11-27T10:53:14;24.10;;;12.83;;
4359;SDS011;2193;47.980;7.660;2022-11-27T10:58:26;30.63;;;14.60;;
4359;SDS011;2193;47.980;7.660;2022-11-27T11:03:34;25.45;;;12.45;;
4359;SDS011;2193;47.980;7.660;2022-11-27T11:06:00;37.83;;;13.40;;
4359;SDS011;2193;47.980;7.660;2022-11-27T11:08:27;23.43;;;13.60;;
4359;SDS011;2193;47.980;7.660;2022-11-27T11:11:01;21.73;;;12.70;;
4359;SDS011;2193;47.980;7.660;2022-11-27T11:13:28;24.50;;;12.33;;
4359;SDS011;2193;47.980;7.660;2022-11-27T11:15:55;24.10;;;11.90;;
4359;SDS011;2193;47.980;7.660;2022-11-27T11:18:22;23.90;;;11.70;;
4359;SDS011;2193;47.980;7.660;2022-11-27T11:20:48;20.97;;;12.53;;
4359;SDS011;2193;47.980;7.660;2022-11-27T11:23:18;25.40;;;13.43;;
4359;SDS011;2193;47.980;7.660;2022-11-27T11:25:48;26.20;;;14.33;;
4359;SDS011;2193;47.980;7.660;2022-11-27T11:28:17;24.80;;;15.30;;
4359;SDS011;2193;47.980;7.660;2022-11-27T11:30:50;20.93;;;12.23;;
4359;SDS011;2193;47.980;7.660;2022-11-27T11:33:16;17.27;;;10.97;;
4359;SDS011;2193;47.980;7.660;2022-11-27T11:35:41;19.80;;;11.83;;
4359;SDS011;2193;47.980;7.660;2022-11-27T11:38:13;25.30;;;12.27;;
4359;SDS011;2193;47.980;7.660;2022-11-27T11:40:39;19.60;;;11.53;;
4359;SDS011;2193;47.980;7.660;2022-11-27T11:43:24;19.13;;;11.20;;
4359;SDS011;2193;47.980;7.660;2022-11-27T11:45:50;20.80;;;10.43;;
4359;SDS011;2193;47.980;7.660;2022-11-27T11:48:23;19.67;;;10.80;;
4359;SDS011;2193;47.980;7.660;2022-11-27T11:50:51;20.10;;;10.90;;
4359;SDS011;2193;47.980;7.660;2022-11-27T12:00:56;16.10;;;8.93;;
4359;SDS011;2193;47.980;7.660;2022-11-27T12:03:31;16.90;;;8.70;;
4359;SDS011;2193;47.980;7.660;2022-11-27T12:09:01;13.83;;;8.37;;
4359;SDS011;2193;47.980;7.660;2022-11-27T12:18:59;21.20;;;9.83;;
4359;SDS011;2193;47.980;7.660;2022-11-27T12:23:59;19.90;;;9.83;;
4359;SDS011;2193;47.980;7.660;2022-11-27T12:27:30;18.43;;;10.33;;
4359;SDS011;2193;47.980;7.660;2022-11-27T12:39:23;16.03;;;9.80;;
4359;SDS011;2193;47.980;7.660;2022-11-27T12:44:29;17.03;;;8.77;;
4359;SDS011;2193;47.980;7.660;2022-11-27T12:47:08;15.67;;;8.83;;
4359;SDS011;2193;47.980;7.660;2022-11-27T12:49:44;17.17;;;9.30;;
4359;SDS011;2193;47.980;7.660;2022-11-27T12:52:20;14.93;;;8.50;;
4359;SDS011;2193;47.980;7.660;2022-11-27T12:57:52;15.97;;;9.00;;
4359;SDS011;2193;47.980;7.660;2022-11-27T13:00:20;16.03;;;9.37;;
4359;SDS011;2193;47.980;7.660;2022-11-27T13:02:55;15.07;;;8.30;;
4359;SDS011;2193;47.980;7.660;2022-11-27T13:05:22;15.67;;;8.27;;
4359;SDS011;2193;47.980;7.660;2022-11-27T13:10:31;14.07;;;8.33;;
4359;SDS011;2193;47.980;7.660;2022-11-27T13:15:38;16.33;;;8.73;;
4359;SDS011;2193;47.980;7.660;2022-11-27T13:18:09;13.73;;;8.30;;
4359;SDS011;2193;47.980;7.660;2022-11-27T13:20:38;13.87;;;8.20;;
4359;SDS011;2193;47.980;7.660;2022-11-27T13:23:04;13.20;;;7.53;;
4359;SDS011;2193;47.980;7.660;2022-11-27T13:25:29;17.10;;;7.90;;
4359;SDS011;2193;47.980;7.660;2022-11-27T13:27:55;12.47;;;7.60;;
4359;SDS011;2193;47.980;7.660;2022-11-27T13:30:25;12.97;;;8.40;;
4359;SDS011;2193;47.980;7.660;2022-11-27T13:33:00;17.47;;;9.20;;
4359;SDS011;2193;47.980;7.660;2022-11-27T13:35:30;18.00;;;11.20;;
4359;SDS011;2193;47.980;7.660;2022-11-27T13:40:29;13.97;;;8.63;;
4359;SDS011;2193;47.980;7.660;2022-11-27T13:42:55;15.27;;;8.80;;
4359;SDS011;2193;47.980;7.660;2022-11-27T13:45:24;16.00;;;8.80;;
4359;SDS011;2193;47.980;7.660;2022-11-27T13:47:50;13.07;;;8.87;;
4359;SDS011;2193;47.980;7.660;2022-11-27T13:50:17;17.33;;;9.33;;
4359;SDS011;2193;47.980;7.660;2022-11-27T13:55:21;15.50;;;9.50;;
4359;SDS011;2193;47.980;7.660;2022-11-27T13:57:54;12.77;;;8.80;;
4359;SDS011;2193;47.980;7.660;2022-11-27T14:00:30;13.33;;;8.90;;
4359;SDS011;2193;47.980;7.660;2022-11-27T14:02:56;13.87;;;8.40;;
4359;SDS011;2193;47.980;7.660;2022-11-27T14:05:33;16.47;;;10.77;;
4359;SDS011;2193;47.980;7.660;2022-11-27T14:07:58;19.03;;;10.00;;
4359;SDS011;2193;47.980;7.660;2022-11-27T14:10:25;17.60;;;11.27;;
4359;SDS011;2193;47.980;7.660;2022-11-27T14:12:54;23.90;;;13.60;;
4359;SDS011;2193;47.980;7.660;2022-11-27T14:15:21;20.13;;;11.40;;
4359;SDS011;2193;47.980;7.660;2022-11-27T14:17:48;17.03;;;9.47;;
4359;SDS011;2193;47.980;7.660;2022-11-27T14:22:49;19.27;;;9.60;;
4359;SDS011;2193;47.980;7.660;2022-11-27T14:25:36;13.97;;;8.50;;
4359;SDS011;2193;47.980;7.660;2022-11-27T14:30:45;12.77;;;8.47;;
4359;SDS011;2193;47.980;7.660;2022-11-27T14:33:19;13.70;;;7.90;;
4359;SDS011;2193;47.980;7.660;2022-11-27T14:35:54;13.70;;;8.00;;
4359;SDS011;2193;47.980;7.660;2022-11-27T14:38:20;13.57;;;8.67;;
4359;SDS011;2193;47.980;7.660;2022-11-27T14:40:46;13.97;;;7.80;;
4359;SDS011;2193;47.980;7.660;2022-11-27T14:43:18;14.43;;;7.77;;
4359;SDS011;2193;47.980;7.660;2022-11-27T14:45:48;13.33;;;8.03;;
4359;SDS011;2193;47.980;7.660;2022-11-27T14:48:18;13.70;;;8.73;;
4359;SDS011;2193;47.980;7.660;2022-11-27T14:50:44;11.40;;;7.30;;
4359;SDS011;2193;47.980;7.660;2022-11-27T14:53:09;14.53;;;9.83;;
4359;SDS011;2193;47.980;7.660;2022-11-27T14:55:35;13.20;;;8.60;;
4359;SDS011;2193;47.980;7.660;2022-11-27T14:58:00;14.73;;;10.20;;
4359;SDS011;2193;47.980;7.660;2022-11-27T15:00:26;15.23;;;10.40;;
4359;SDS011;2193;47.980;7.660;2022-11-27T15:02:51;19.60;;;9.83;;
4359;SDS011;2193;47.980;7.660;2022-11-27T15:07:43;17.07;;;10.83;;
4359;SDS011;2193;47.980;7.660;2022-11-27T15:10:16;16.47;;;9.50;;
4359;SDS011;2193;47.980;7.660;2022-11-27T15:12:44;17.90;;;10.20;;
4359;SDS011;2193;47.980;7.660;2022-11-27T15:17:36;20.17;;;11.27;;
4359;SDS011;2193;47.980;7.660;2022-11-27T15:20:03;18.60;;;11.50;;
4359;SDS011;2193;47.980;7.660;2022-11-27T15:22:35;21.50;;;12.40;;
4359;SDS011;2193;47.980;7.660;2022-11-27T15:25:03;16.23;;;10.68;;
4359;SDS011;2193;47.980;7.660;2022-11-27T15:27:30;18.43;;;12.10;;
4359;SDS011;2193;47.980;7.660;2022-11-27T15:32:25;17.45;;;10.40;;
4359;SDS011;2193;47.980;7.660;2022-11-27T15:34:50;18.17;;;10.07;;
4359;SDS011;2193;47.980;7.660;2022-11-27T15:37:22;14.13;;;9.47;;
4359;SDS011;2193;47.980;7.660;2022-11-27T15:39:49;14.60;;;9.30;;
4359;SDS011;2193;47.980;7.660;2022-11-27T15:42:18;16.30;;;10.63;;
4359;SDS011;2193;47.980;7.660;2022-11-27T15:44:44;17.13;;;10.85;;
4359;SDS011;2193;47.980;7.660;2022-11-27T15:49:47;18.53;;;10.50;;
4359;SDS011;2193;47.980;7.660;2022-11-27T15:52:12;17.13;;;10.77;;
4359;SDS011;2193;47.980;7.660;2022-11-27T15:54:38;19.90;;;11.10;;
4359;SDS011;2193;47.980;7.660;2022-11-27T15:57:03;21.90;;;13.20;;
4359;SDS011;2193;47.980;7.660;2022-11-27T15:59:28;19.33;;;11.17;;
4359;SDS011;2193;47.980;7.660;2022-11-27T16:01:53;17.17;;;10.80;;
4359;SDS011;2193;47.980;7.660;2022-11-27T16:04:20;21.15;;;10.77;;
4359;SDS011;2193;47.980;7.660;2022-11-27T16:06:45;20.50;;;11.60;;
4359;SDS011;2193;47.980;7.660;2022-11-27T16:09:10;18.93;;;11.17;;
4359;SDS011;2193;47.980;7.660;2022-11-27T16:11:35;20.80;;;12.57;;
4359;SDS011;2193;47.980;7.660;2022-11-27T16:14:01;20.07;;;12.87;;
4359;SDS011;2193;47.980;7.660;2022-11-27T16:16:26;20.27;;;12.37;;
4359;SDS011;2193;47.980;7.660;2022-11-27T16:18:54;24.73;;;14.23;;
4359;SDS011;2193;47.980;7.660;2022-11-27T16:21:20;22.88;;;13.30;;
4359;SDS011;2193;47.980;7.660;2022-11-27T16:23:45;23.67;;;12.57;;
4359;SDS011;2193;47.980;7.660;2022-11-27T16:26:11;27.20;;;14.10;;
4359;SDS011;2193;47.980;7.660;2022-11-27T16:28:36;26.87;;;15.27;;
4359;SDS011;2193;47.980;7.660;2022-11-27T16:31:02;30.83;;;16.10;;
4359;SDS011;2193;47.980;7.660;2022-11-27T16:33:28;29.97;;;17.27;;
4359;SDS011;2193;47.980;7.660;2022-11-27T16:35:53;31.00;;;16.90;;
4359;SDS011;2193;47.980;7.660;2022-11-27T16:38:18;31.80;;;18.60;;
4359;SDS011;2193;47.980;7.660;2022-11-27T16:40:45;26.08;;;15.35;;
4359;SDS011;2193;47.980;7.660;2022-11-27T16:43:10;27.07;;;17.47;;
4359;SDS011;2193;47.980;7.660;2022-11-27T16:45:35;35.10;;;17.77;;
4359;SDS011;2193;47.980;7.660;2022-11-27T16:48:00;26.43;;;15.83;;